Time;durP1;ratioP1;P1;durP2;ratioP2;P2;SDS_P1;SDS_P2;PMS_P1;PMS_P2;Temp;Humidity;BMP_temperature;BMP_pressure;BME280_temperature;BME280_humidity;BME280_pressure;Samples;Min_cycle;Max_cycle;Signal;HPM_P1;HPM_P2
2023/07/30 00:01:23;;;;;;;4.80;3.03;;;16.50;66.30;;;;;;5066044;28;20910;-54
2023/07/30 00:03:50;;;;;;;2.90;2.50;;;16.50;66.40;;;;;;5067913;28;20561;-54
2023/07/30 00:06:16;;;;;;;3.93;2.67;;;16.40;66.60;;;;;;5068093;28;21031;-55
2023/07/30 00:08:44;;;;;;;4.40;2.80;;;16.40;66.90;;;;;;5064786;28;20548;-54
2023/07/30 00:11:11;;;;;;;3.27;2.97;;;16.40;67.00;;;;;;5069154;28;20891;-55
2023/07/30 00:13:37;;;;;;;3.30;3.00;;;16.40;67.20;;;;;;5070231;28;20529;-55
2023/07/30 00:16:04;;;;;;;14.23;3.10;;;16.40;67.10;;;;;;5066405;28;20572;-54
2023/07/30 00:18:30;;;;;;;6.07;2.70;;;16.40;67.20;;;;;;5064072;28;20547;-55
2023/07/30 00:20:57;;;;;;;3.50;2.90;;;16.40;67.00;;;;;;5067818;28;20549;-55
2023/07/30 00:23:24;;;;;;;3.10;2.90;;;16.40;67.10;;;;;;5068793;28;21078;-54
2023/07/30 00:25:51;;;;;;;3.03;2.67;;;16.40;67.30;;;;;;5065587;28;20535;-55
2023/07/30 00:28:18;;;;;;;7.83;3.13;;;16.40;67.50;;;;;;5061455;28;20528;-54
2023/07/30 00:30:45;;;;;;;3.70;2.60;;;16.30;68.00;;;;;;5068131;28;20535;-54
2023/07/30 00:33:11;;;;;;;3.07;2.33;;;16.30;68.40;;;;;;5062851;28;20548;-54
2023/07/30 00:35:38;;;;;;;3.07;2.57;;;16.30;68.60;;;;;;5061220;28;20489;-54
2023/07/30 00:38:04;;;;;;;7.10;2.57;;;16.30;68.50;;;;;;5067135;28;20548;-55
2023/07/30 00:40:31;;;;;;;3.90;2.10;;;16.30;68.60;;;;;;5069138;28;20556;-54
2023/07/30 00:42:59;;;;;;;3.50;2.60;;;16.30;68.90;;;;;;5057105;28;20554;-55
2023/07/30 00:45:26;;;;;;;5.10;2.47;;;16.20;69.40;;;;;;5061453;28;20580;-54
2023/07/30 00:47:52;;;;;;;3.03;2.73;;;16.20;69.60;;;;;;5057369;28;20576;-55
2023/07/30 00:50:19;;;;;;;4.03;2.73;;;16.20;70.10;;;;;;5055819;28;20557;-55
2023/07/30 00:52:45;;;;;;;2.53;2.33;;;16.10;70.60;;;;;;5060671;28;20549;-53
2023/07/30 00:55:13;;;;;;;2.40;2.20;;;16.10;71.00;;;;;;5068994;28;20481;-55
2023/07/30 00:57:40;;;;;;;7.73;2.77;;;16.10;71.70;;;;;;5067508;28;20531;-54
2023/07/30 01:00:09;;;;;;;4.30;2.40;;;16.00;71.60;;;;;;5064152;28;20461;-54
2023/07/30 01:02:36;;;;;;;5.87;2.17;;;16.10;71.20;;;;;;5064185;28;20984;-55
2023/07/30 01:05:04;;;;;;;5.00;2.30;;;16.00;72.00;;;;;;5070068;28;21044;-54
2023/07/30 01:07:30;;;;;;;7.33;2.37;;;15.90;72.70;;;;;;5061354;28;20465;-54
2023/07/30 01:09:57;;;;;;;2.90;2.70;;;15.80;73.60;;;;;;5063626;28;20501;-55
2023/07/30 01:12:24;;;;;;;10.17;2.40;;;15.80;74.00;;;;;;5066779;28;20548;-54
2023/07/30 01:14:52;;;;;;;3.97;2.30;;;15.80;73.90;;;;;;5066166;28;20591;-55
2023/07/30 01:17:20;;;;;;;5.53;2.50;;;15.70;74.30;;;;;;5064082;28;20480;-54
2023/07/30 01:19:47;;;;;;;3.33;2.47;;;15.60;75.20;;;;;;5067605;28;20552;-54
2023/07/30 01:22:14;;;;;;;3.20;2.17;;;15.60;75.70;;;;;;5064380;28;20460;-54
2023/07/30 01:24:41;;;;;;;8.93;2.37;;;15.50;76.20;;;;;;5066293;28;20488;-54
2023/07/30 01:27:11;;;;;;;3.40;2.10;;;15.50;74.10;;;;;;5070577;28;20571;-54
2023/07/30 01:29:42;;;;;;;3.67;2.40;;;15.50;75.60;;;;;;5068720;28;20535;-54
2023/07/30 01:32:12;;;;;;;4.83;2.30;;;15.50;75.90;;;;;;5070914;28;20899;-54
2023/07/30 01:34:41;;;;;;;6.70;2.40;;;15.40;76.40;;;;;;5070154;28;20465;-54
2023/07/30 01:37:13;;;;;;;5.17;2.70;;;15.40;76.70;;;;;;5068557;28;20508;-55
2023/07/30 01:39:43;;;;;;;11.57;2.80;;;15.40;77.20;;;;;;5060386;28;20526;-55
2023/07/30 01:42:12;;;;;;;2.83;2.63;;;15.40;77.20;;;;;;5069439;28;20496;-54
2023/07/30 01:44:39;;;;;;;6.30;2.37;;;15.30;77.10;;;;;;5061462;28;20995;-54
2023/07/30 01:47:05;;;;;;;4.67;2.53;;;15.30;77.40;;;;;;5065489;28;20556;-54
2023/07/30 01:49:32;;;;;;;6.93;2.87;;;15.30;77.40;;;;;;5073920;28;20520;-54
2023/07/30 01:51:59;;;;;;;3.53;2.40;;;15.30;77.60;;;;;;5073958;28;20528;-53
2023/07/30 01:54:25;;;;;;;3.70;2.50;;;15.20;77.70;;;;;;5071433;28;20461;-54
2023/07/30 01:56:54;;;;;;;2.67;2.47;;;15.20;78.10;;;;;;5069870;28;20914;-55
2023/07/30 01:59:21;;;;;;;6.13;2.50;;;15.10;78.10;;;;;;5066545;28;20961;-54
2023/07/30 02:01:47;;;;;;;2.87;2.57;;;15.10;78.80;;;;;;5066868;28;20537;-54
2023/07/30 02:04:14;;;;;;;3.60;2.23;;;15.10;78.70;;;;;;5070215;28;20496;-55
2023/07/30 02:06:40;;;;;;;3.40;2.50;;;15.00;78.90;;;;;;5072847;28;20894;-53
2023/07/30 02:09:07;;;;;;;2.67;2.47;;;15.00;79.10;;;;;;5063473;28;20937;-55
2023/07/30 02:11:33;;;;;;;2.60;2.40;;;15.00;79.40;;;;;;5068742;28;20488;-54
2023/07/30 02:14:01;;;;;;;9.13;2.60;;;15.00;79.60;;;;;;5060647;28;20529;-54
2023/07/30 02:16:28;;;;;;;2.70;2.50;;;14.90;79.70;;;;;;5071144;28;21021;-55
2023/07/30 02:18:54;;;;;;;5.43;3.10;;;14.90;79.90;;;;;;5062029;28;20544;-55
2023/07/30 02:21:21;;;;;;;4.23;2.17;;;14.90;80.10;;;;;;5063385;28;20914;-54
2023/07/30 02:23:47;;;;;;;2.77;2.50;;;14.90;80.10;;;;;;5060542;28;20565;-55
2023/07/30 02:26:14;;;;;;;5.73;2.40;;;14.80;80.30;;;;;;5064746;28;20603;-54
2023/07/30 02:28:40;;;;;;;5.50;2.50;;;14.80;80.40;;;;;;5063333;28;20548;-55
2023/07/30 02:31:08;;;;;;;2.50;2.30;;;14.80;80.60;;;;;;5070621;28;20544;-55
2023/07/30 02:33:34;;;;;;;8.80;3.20;;;14.80;80.70;;;;;;5069398;28;20961;-54
2023/07/30 02:36:01;;;;;;;2.80;2.50;;;14.80;80.90;;;;;;5061815;28;20581;-54
2023/07/30 02:38:27;;;;;;;2.87;2.53;;;14.80;80.90;;;;;;5064231;28;20480;-54
2023/07/30 02:40:54;;;;;;;5.97;2.33;;;14.80;81.30;;;;;;5065403;28;20865;-53
2023/07/30 02:43:20;;;;;;;5.73;2.70;;;14.80;81.30;;;;;;5069846;28;20549;-55
2023/07/30 02:45:48;;;;;;;4.40;2.80;;;14.80;81.50;;;;;;5077732;22;20512;-54
2023/07/30 02:48:16;;;;;;;6.90;2.60;;;14.80;81.90;;;;;;5071016;28;20473;-52
2023/07/30 02:50:43;;;;;;;5.17;3.50;;;14.80;81.70;;;;;;5062645;28;20503;-53
2023/07/30 02:53:09;;;;;;;5.00;2.93;;;14.80;81.70;;;;;;5068813;28;20480;-53
2023/07/30 02:55:36;;;;;;;7.20;2.73;;;14.90;81.70;;;;;;5067364;28;20584;-53
2023/07/30 02:58:02;;;;;;;10.07;4.33;;;14.90;81.60;;;;;;5063163;28;20547;-53
2023/07/30 03:00:29;;;;;;;6.47;4.10;;;14.90;81.10;;;;;;5064737;28;20514;-53
2023/07/30 03:02:57;;;;;;;5.27;3.53;;;15.00;82.70;;;;;;5063328;28;20487;-53
2023/07/30 03:05:25;;;;;;;3.83;3.10;;;14.90;81.60;;;;;;5069293;28;20473;-53
2023/07/30 03:07:51;;;;;;;5.33;2.70;;;14.90;81.30;;;;;;5070171;28;20504;-53
2023/07/30 03:10:18;;;;;;;3.00;2.70;;;14.90;81.10;;;;;;5070063;28;20457;-53
2023/07/30 03:12:44;;;;;;;4.00;3.10;;;14.90;81.20;;;;;;5067808;28;20536;-53
2023/07/30 03:15:11;;;;;;;4.33;3.50;;;14.80;81.20;;;;;;5065616;28;20547;-53
2023/07/30 03:17:37;;;;;;;19.87;3.83;;;14.80;81.10;;;;;;5065766;28;20540;-53
2023/07/30 03:20:05;;;;;;;6.33;3.07;;;14.80;81.30;;;;;;5062959;28;20555;-53
2023/07/30 03:22:33;;;;;;;12.50;3.53;;;14.70;82.10;;;;;;5069424;28;20453;-54
2023/07/30 03:24:59;;;;;;;3.30;3.00;;;14.70;81.80;;;;;;5067721;28;20548;-53
2023/07/30 03:27:26;;;;;;;6.03;3.37;;;14.70;81.90;;;;;;5067114;28;20899;-53
2023/07/30 03:29:52;;;;;;;4.17;3.13;;;14.70;81.90;;;;;;5067620;28;21043;-53
2023/07/30 03:32:19;;;;;;;5.20;3.70;;;14.70;82.30;;;;;;5066597;28;20544;-53
2023/07/30 03:34:45;;;;;;;9.10;3.90;;;14.70;82.20;;;;;;5066887;28;20552;-53
2023/07/30 03:37:12;;;;;;;6.57;3.53;;;14.70;82.20;;;;;;5066485;28;20580;-53
2023/07/30 03:39:40;;;;;;;5.07;3.40;;;14.70;82.80;;;;;;5065130;28;20508;-54
2023/07/30 03:42:06;;;;;;;3.03;2.70;;;14.60;82.60;;;;;;5065528;28;20995;-53
2023/07/30 03:44:33;;;;;;;5.10;3.10;;;14.60;82.50;;;;;;5065363;28;20572;-54
2023/07/30 03:46:59;;;;;;;4.03;3.23;;;14.70;82.40;;;;;;5069945;28;20579;-53
2023/07/30 03:49:26;;;;;;;5.07;3.20;;;14.70;82.50;;;;;;5066410;28;20496;-53
2023/07/30 03:51:53;;;;;;;21.03;3.67;;;14.60;82.50;;;;;;5069770;28;20555;-53
2023/07/30 03:54:19;;;;;;;5.23;3.33;;;14.70;83.90;;;;;;5066521;28;21008;-52
2023/07/30 03:56:47;;;;;;;4.30;3.57;;;14.80;84.50;;;;;;5070212;28;20517;-53
2023/07/30 03:59:14;;;;;;;5.13;3.17;;;14.80;83.40;;;;;;5068698;28;20502;-54
2023/07/30 04:01:40;;;;;;;12.30;3.37;;;14.80;83.00;;;;;;5070502;28;20539;-52
2023/07/30 04:04:07;;;;;;;7.87;4.43;;;14.70;83.00;;;;;;5069034;28;20529;-53
2023/07/30 04:06:33;;;;;;;6.57;4.00;;;14.70;82.70;;;;;;5064369;28;20599;-54
2023/07/30 04:09:00;;;;;;;9.13;3.60;;;14.80;82.80;;;;;;5066834;28;20548;-53
2023/07/30 04:11:26;;;;;;;7.13;3.73;;;14.80;83.30;;;;;;5068174;28;20571;-54
2023/07/30 04:13:54;;;;;;;9.93;3.90;;;14.90;83.80;;;;;;5066755;28;20493;-54
2023/07/30 04:16:21;;;;;;;4.33;3.93;;;14.90;83.20;;;;;;5066450;28;20600;-53
2023/07/30 04:18:47;;;;;;;4.70;3.67;;;14.90;82.70;;;;;;5069037;28;20588;-54
2023/07/30 04:21:15;;;;;;;12.70;4.20;;;15.00;82.70;;;;;;5069934;28;20465;-53
2023/07/30 04:23:41;;;;;;;5.10;3.40;;;15.00;82.40;;;;;;5064979;28;20457;-53
2023/07/30 04:26:08;;;;;;;5.30;3.60;;;15.10;81.90;;;;;;5068735;28;20560;-54
2023/07/30 04:28:35;;;;;;;10.90;3.70;;;15.10;81.70;;;;;;5069965;28;20544;-53
2023/07/30 04:31:02;;;;;;;5.93;3.80;;;15.20;81.40;;;;;;5070344;28;21042;-53
2023/07/30 04:33:29;;;;;;;6.13;4.00;;;15.30;81.20;;;;;;5066573;28;22048;-53
2023/07/30 04:35:55;;;;;;;18.60;4.30;;;15.30;80.90;;;;;;5069541;28;20481;-53
2023/07/30 04:38:23;;;;;;;11.60;4.20;;;15.40;80.50;;;;;;5065439;28;21017;-53
2023/07/30 04:40:49;;;;;;;4.17;3.53;;;15.50;80.30;;;;;;5067711;28;20461;-53
2023/07/30 04:43:16;;;;;;;9.57;4.10;;;15.50;80.10;;;;;;5071761;28;20493;-54
2023/07/30 04:45:43;;;;;;;7.50;3.47;;;15.50;79.80;;;;;;5073991;28;20529;-53
2023/07/30 04:48:12;;;;;;;9.60;3.87;;;15.50;79.60;;;;;;5071663;28;20540;-53
2023/07/30 04:50:41;;;;;;;5.30;3.57;;;15.60;79.40;;;;;;5065520;28;20545;-54
2023/07/30 04:53:08;;;;;;;12.40;3.40;;;15.70;78.00;;;;;;5070888;28;20969;-54
2023/07/30 04:55:34;;;;;;;5.03;3.47;;;15.70;78.40;;;;;;5066192;28;20564;-54
2023/07/30 04:58:02;;;;;;;3.57;3.27;;;15.80;78.00;;;;;;5071465;28;20591;-53
2023/07/30 05:00:28;;;;;;;8.80;3.87;;;15.90;77.50;;;;;;5068060;28;20906;-53
2023/07/30 05:02:55;;;;;;;4.80;3.50;;;15.90;77.10;;;;;;5073803;28;20539;-53
2023/07/30 05:05:23;;;;;;;11.23;3.90;;;16.00;76.40;;;;;;5068824;28;20551;-53
2023/07/30 05:07:49;;;;;;;14.80;4.23;;;16.10;75.60;;;;;;5070943;28;20536;-53
2023/07/30 05:10:16;;;;;;;3.80;3.50;;;16.10;73.60;;;;;;5075427;28;20536;-53
2023/07/30 05:12:43;;;;;;;6.57;3.80;;;16.30;72.90;;;;;;5073228;28;20506;-54
2023/07/30 05:15:09;;;;;;;3.60;3.30;;;16.40;71.30;;;;;;5065752;28;20544;-61
2023/07/30 05:17:36;;;;;;;3.70;3.03;;;16.40;69.20;;;;;;5069974;28;20576;-54
2023/07/30 05:20:03;;;;;;;5.03;3.67;;;16.50;68.10;;;;;;5068480;28;20452;-53
2023/07/30 05:22:30;;;;;;;4.37;3.67;;;16.60;67.40;;;;;;5067041;28;20896;-53
2023/07/30 05:24:57;;;;;;;7.80;3.50;;;16.60;67.50;;;;;;5070789;28;20492;-53
2023/07/30 05:27:23;;;;;;;5.70;3.50;;;16.70;68.00;;;;;;5073494;28;20457;-53
2023/07/30 05:29:50;;;;;;;8.40;3.37;;;16.70;68.60;;;;;;5065767;28;20539;-53
2023/07/30 05:32:16;;;;;;;4.13;3.57;;;16.80;70.10;;;;;;5071338;28;20484;-53
2023/07/30 05:34:43;;;;;;;5.33;3.60;;;16.80;71.00;;;;;;5069446;28;20539;-53
2023/07/30 05:37:10;;;;;;;4.17;3.80;;;16.80;71.80;;;;;;5066021;28;20564;-53
2023/07/30 05:39:37;;;;;;;4.97;3.27;;;16.90;72.60;;;;;;5074327;28;21018;-53
2023/07/30 05:42:04;;;;;;;3.73;3.43;;;16.90;75.10;;;;;;5070083;28;20544;-53
2023/07/30 05:44:31;;;;;;;7.87;3.97;;;17.00;75.90;;;;;;5071464;28;21016;-54
2023/07/30 05:46:57;;;;;;;3.90;3.60;;;17.00;76.90;;;;;;5070781;28;20647;-54
2023/07/30 05:49:25;;;;;;;12.83;4.47;;;17.00;83.90;;;;;;5072635;28;20544;-54
2023/07/30 05:51:51;;;;;;;7.53;3.87;;;17.00;85.60;;;;;;5074748;28;20539;-54
2023/07/30 05:54:18;;;;;;;3.90;3.50;;;17.10;86.10;;;;;;5073041;28;20900;-54
2023/07/30 05:56:46;;;;;;;3.27;2.97;;;17.10;89.80;;;;;;5073578;28;20942;-54
2023/07/30 05:59:12;;;;;;;3.80;3.50;;;17.20;90.20;;;;;;5074842;28;20543;-54
2023/07/30 06:01:39;;;;;;;4.53;3.67;;;17.20;93.00;;;;;;5067220;28;20506;-54
2023/07/30 06:04:05;;;;;;;7.20;4.13;;;17.30;97.10;;;;;;5064536;28;21034;-53
2023/07/30 06:06:32;;;;;;;3.70;3.33;;;17.30;99.90;;;;;;5077686;28;20477;-54
2023/07/30 06:08:59;;;;;;;8.80;3.13;;;17.40;99.90;;;;;;5073402;28;20457;-53
2023/07/30 06:11:26;;;;;;;4.80;3.70;;;17.40;99.90;;;;;;5071906;28;20555;-54
2023/07/30 06:13:54;;;;;;;3.73;3.03;;;17.40;99.90;;;;;;5070748;28;20469;-54
2023/07/30 06:16:20;;;;;;;3.77;3.33;;;17.50;99.90;;;;;;5072989;28;20527;-53
2023/07/30 06:18:47;;;;;;;3.47;3.17;;;17.50;99.90;;;;;;5071319;28;20564;-53
2023/07/30 06:21:14;;;;;;;3.00;2.80;;;17.50;99.90;;;;;;5071547;28;20567;-52
2023/07/30 06:23:40;;;;;;;4.90;3.10;;;17.50;99.90;;;;;;5070938;28;20928;-54
2023/07/30 06:26:07;;;;;;;4.60;3.03;;;17.60;99.90;;;;;;5072967;28;20512;-54
2023/07/30 06:28:33;;;;;;;3.27;2.73;;;17.60;99.90;;;;;;5065128;28;20503;-54
2023/07/30 06:31:02;;;;;;;4.07;2.60;;;17.70;99.90;;;;;;5074081;28;20500;-53
2023/07/30 06:33:28;;;;;;;9.33;2.60;;;17.80;99.90;;;;;;5082624;28;20497;-53
2023/07/30 06:35:55;;;;;;;3.70;3.00;;;17.90;99.90;;;;;;5087295;28;20476;-53
2023/07/30 06:38:22;;;;;;;2.80;2.40;;;17.90;99.90;;;;;;5084632;28;20480;-53
2023/07/30 06:40:49;;;;;;;7.37;2.97;;;17.90;99.90;;;;;;5089229;28;20468;-54
2023/07/30 06:43:15;;;;;;;4.23;2.60;;;17.90;99.90;;;;;;5096019;28;20453;-53
2023/07/30 06:45:42;;;;;;;5.50;2.63;;;18.00;99.90;;;;;;5094790;28;20484;-58
2023/07/30 06:48:10;;;;;;;2.90;2.10;;;18.00;99.90;;;;;;5086624;28;20488;-53
2023/07/30 06:50:36;;;;;;;2.80;2.20;;;18.00;99.90;;;;;;5065468;28;20557;-55
2023/07/30 06:53:03;;;;;;;4.07;2.50;;;18.10;99.90;;;;;;5069614;28;20522;-53
2023/07/30 06:55:29;;;;;;;2.90;2.50;;;18.20;99.90;;;;;;5068045;28;21028;-54
2023/07/30 06:57:56;;;;;;;3.00;2.20;;;18.30;99.90;;;;;;5074025;28;20580;-53
2023/07/30 07:00:22;;;;;;;6.60;2.70;;;18.40;99.90;;;;;;5063181;28;21692;-54
2023/07/30 07:02:49;;;;;;;6.80;2.70;;;18.60;99.90;;;;;;5070919;28;20888;-53
2023/07/30 07:05:17;;;;;;;2.80;2.27;;;18.70;99.90;;;;;;5066530;28;20465;-53
2023/07/30 07:07:43;;;;;;;12.30;2.60;;;18.70;99.90;;;;;;5068845;28;20488;-52
2023/07/30 07:10:11;;;;;;;6.40;2.53;;;18.90;99.90;;;;;;5069244;28;20560;-54
2023/07/30 07:12:38;;;;;;;2.50;2.00;;;19.00;99.90;;;;;;5070279;28;20534;-54
2023/07/30 07:15:05;;;;;;;2.30;2.07;;;19.00;99.90;;;;;;5065620;28;20492;-53
2023/07/30 07:17:32;;;;;;;4.90;2.67;;;19.00;99.90;;;;;;5066354;28;20528;-53
2023/07/30 07:19:59;;;;;;;2.10;2.00;;;19.20;99.90;;;;;;5070625;28;20540;-54
2023/07/30 07:22:27;;;;;;;7.80;3.07;;;19.10;99.90;;;;;;5068588;28;21047;-54
2023/07/30 07:24:54;;;;;;;3.00;2.57;;;19.10;99.90;;;;;;5072238;28;20458;-54
2023/07/30 07:27:21;;;;;;;2.80;2.37;;;19.10;99.90;;;;;;5070063;28;20813;-54
2023/07/30 07:29:47;;;;;;;6.73;2.80;;;19.20;99.90;;;;;;5067149;28;20437;-54
2023/07/30 07:32:14;;;;;;;3.00;2.70;;;19.20;99.90;;;;;;5071686;28;20540;-53
2023/07/30 07:34:40;;;;;;;3.20;2.90;;;19.30;99.90;;;;;;5064298;28;20463;-53
2023/07/30 07:37:07;;;;;;;5.27;2.73;;;19.30;99.90;;;;;;5068047;28;20538;-53
2023/07/30 07:39:35;;;;;;;3.23;2.40;;;19.50;99.90;;;;;;5069004;28;20457;-53
2023/07/30 07:42:01;;;;;;;2.70;2.53;;;19.50;99.90;;;;;;5066634;28;20568;-53
2023/07/30 07:44:28;;;;;;;3.10;2.47;;;19.70;99.90;;;;;;5067161;28;20493;-53
2023/07/30 07:46:54;;;;;;;3.73;2.20;;;19.70;99.90;;;;;;5063636;28;21006;-52
2023/07/30 07:49:21;;;;;;;2.93;2.73;;;19.70;99.90;;;;;;5068767;28;20540;-53
2023/07/30 07:51:47;;;;;;;10.53;2.50;;;19.70;30.20;;;;;;5070557;28;20499;-53
2023/07/30 07:54:14;;;;;;;8.57;2.60;;;19.60;84.10;;;;;;5069480;28;20540;-52
2023/07/30 07:56:42;;;;;;;4.33;2.90;;;19.60;99.90;;;;;;5069771;28;20555;-52
2023/07/30 07:59:08;;;;;;;4.83;3.10;;;19.70;20.70;;;;;;5069593;28;20544;-53
2023/07/30 08:01:35;;;;;;;2.80;2.10;;;19.70;21.50;;;;;;5067938;28;21006;-53
2023/07/30 08:04:02;;;;;;;5.03;2.37;;;19.80;89.10;;;;;;5069342;28;20978;-53
2023/07/30 08:06:29;;;;;;;2.70;2.50;;;19.70;26.50;;;;;;5064776;28;20926;-53
2023/07/30 08:08:56;;;;;;;4.90;2.57;;;19.80;31.10;;;;;;5066978;28;20457;-53
2023/07/30 08:11:23;;;;;;;3.03;2.30;;;19.80;35.90;;;;;;5063842;28;20514;-55
2023/07/30 08:13:50;;;;;;;3.57;2.97;;;19.80;49.80;;;;;;5066156;28;21056;-52
2023/07/30 08:16:17;;;;;;;3.53;2.80;;;19.80;35.30;;;;;;5062878;28;20512;-49
2023/07/30 08:18:44;;;;;;;6.20;2.93;;;20.00;26.60;;;;;;5067608;28;20514;-52
2023/07/30 08:21:10;;;;;;;2.67;2.47;;;20.00;51.40;;;;;;5065104;28;20544;-51
2023/07/30 08:23:37;;;;;;;6.80;2.43;;;20.30;38.60;;;;;;5062038;28;20480;-50
2023/07/30 08:26:04;;;;;;;9.40;2.73;;;20.50;53.80;;;;;;5067786;28;20798;-50
2023/07/30 08:28:31;;;;;;;6.47;2.30;;;20.60;74.90;;;;;;5063526;28;21051;-50
2023/07/30 08:31:03;;;;;;;4.53;2.20;;;20.50;94.30;;;;;;5064553;28;20548;-51
2023/07/30 08:33:29;;;;;;;5.13;2.30;;;20.40;91.60;;;;;;5062941;28;20539;-50
2023/07/30 08:35:56;;;;;;;5.90;2.70;;;20.60;96.90;;;;;;5059339;28;20584;-51
2023/07/30 08:38:23;;;;;;;7.50;2.50;;;20.90;99.90;;;;;;5067908;28;20477;-51
2023/07/30 08:40:50;;;;;;;3.57;2.23;;;20.90;99.90;;;;;;5067521;28;20540;-50
2023/07/30 08:43:16;;;;;;;3.17;2.87;;;20.80;99.90;;;;;;5065220;28;20472;-51
2023/07/30 08:45:43;;;;;;;5.37;2.43;;;20.80;99.90;;;;;;5066011;28;20488;-50
2023/07/30 08:48:11;;;;;;;9.43;3.17;;;20.90;99.90;;;;;;5066238;28;20506;-50
2023/07/30 08:50:38;;;;;;;3.17;2.40;;;21.20;99.90;;;;;;5061894;28;21272;-51
2023/07/30 08:53:05;;;;;;;5.33;2.30;;;21.40;99.90;;;;;;5061207;28;21010;-50
2023/07/30 08:55:34;;;;;;;4.43;2.03;;;21.50;99.90;;;;;;5065387;28;20480;-51
2023/07/30 08:58:03;;;;;;;5.67;2.47;;;21.50;99.90;;;;;;5068054;28;20581;-49
2023/07/30 09:00:34;;;;;;;4.20;2.33;;;21.50;99.90;;;;;;5064758;28;20547;-51
2023/07/30 09:03:03;;;;;;;14.30;2.70;;;21.30;99.90;;;;;;5062900;28;20906;-51
2023/07/30 09:05:32;;;;;;;3.30;2.73;;;21.20;99.90;;;;;;5064696;28;21221;-51
2023/07/30 09:07:59;;;;;;;4.63;2.80;;;21.10;99.90;;;;;;5060635;28;20489;-50
2023/07/30 09:10:27;;;;;;;3.47;2.20;;;20.90;99.90;;;;;;5055830;28;20540;-51
2023/07/30 09:12:55;;;;;;;3.23;2.10;;;20.70;99.90;;;;;;5069093;28;20499;-50
2023/07/30 09:15:30;;;;;;;7.73;2.57;;;20.60;99.90;;;;;;5064793;28;21009;-51
2023/07/30 09:17:56;;;;;;;3.80;3.00;;;20.50;99.90;;;;;;5067337;28;20563;-51
2023/07/30 09:20:23;;;;;;;3.97;2.50;;;20.50;99.90;;;;;;5067770;28;20556;-50
2023/07/30 09:22:51;;;;;;;11.63;4.70;;;20.90;99.90;;;;;;5068321;28;20487;-50
2023/07/30 09:25:20;;;;;;;11.40;5.37;;;21.20;99.90;;;;;;5068758;28;20927;-50
2023/07/30 09:27:49;;;;;;;16.33;4.00;;;21.30;99.90;;;;;;5073162;28;20535;-51
2023/07/30 09:30:22;;;;;;;7.53;4.57;;;21.40;99.90;;;;;;5068307;28;20473;-51
2023/07/30 09:32:52;;;;;;;4.10;2.80;;;21.60;99.90;;;;;;5072431;28;20512;-51
2023/07/30 09:35:19;;;;;;;5.47;2.23;;;21.80;99.90;;;;;;5066589;28;20472;-50
2023/07/30 09:37:46;;;;;;;11.43;5.53;;;21.90;21.50;;;;;;5071162;28;20516;-50
2023/07/30 09:40:16;;;;;;;7.80;3.60;;;21.60;30.90;;;;;;5067359;28;20543;-52
2023/07/30 09:42:44;;;;;;;7.03;2.97;;;21.50;25.50;;;;;;5068672;28;20534;-51
2023/07/30 09:45:18;;;;;;;4.83;2.73;;;21.70;99.90;;;;;;5069858;28;20552;-53
2023/07/30 09:47:47;;;;;;;4.87;2.23;;;22.20;34.50;;;;;;5072635;28;20461;-50
2023/07/30 09:50:15;;;;;;;3.27;2.20;;;22.50;53.50;;;;;;5062726;28;20990;-51
2023/07/30 09:52:42;;;;;;;6.17;2.57;;;23.00;47.30;;;;;;5066597;28;20457;-51
2023/07/30 09:55:09;;;;;;;6.40;2.70;;;23.50;64.70;;;;;;5068495;28;20540;-51
2023/07/30 09:57:37;;;;;;;7.30;2.60;;;23.70;99.60;;;;;;5070516;28;20543;-51
2023/07/30 10:00:03;;;;;;;4.83;2.07;;;23.80;99.90;;;;;;5072991;28;20493;-51
2023/07/30 10:02:31;;;;;;;2.20;2.00;;;23.80;99.90;;;;;;5069847;28;20506;-50
2023/07/30 10:04:59;;;;;;;5.00;2.80;;;23.70;99.90;;;;;;5064020;28;20468;-51
2023/07/30 10:07:28;;;;;;;5.00;2.17;;;23.70;99.90;;;;;;5061957;28;20472;-51
2023/07/30 10:10:01;;;;;;;3.53;2.17;;;23.80;99.90;;;;;;5073609;28;20524;-50
2023/07/30 10:12:33;;;;;;;4.63;2.13;;;23.80;99.90;;;;;;5071467;28;21028;-52
2023/07/30 10:15:01;;;;;;;4.20;2.10;;;23.70;99.90;;;;;;5066103;28;20552;-50
2023/07/30 10:17:29;;;;;;;8.20;2.27;;;23.80;99.90;;;;;;5069588;28;20552;-50
2023/07/30 10:19:55;;;;;;;4.30;2.20;;;23.90;99.90;;;;;;5069955;28;20849;-51
2023/07/30 10:22:24;;;;;;;8.00;2.07;;;24.10;99.90;;;;;;5060000;28;20489;-50
2023/07/30 10:24:58;;;;;;;5.93;2.23;;;23.60;99.90;;;;;;5068488;28;20985;-50
2023/07/30 10:27:25;;;;;;;6.43;2.30;;;23.20;99.90;;;;;;5063898;28;20469;-50
2023/07/30 10:30:11;;;;;;;2.77;2.00;;;23.00;99.90;;;;;;5068227;28;20536;-49
2023/07/30 10:32:41;;;;;;;5.87;2.97;;;23.40;95.80;;;;;;5071683;28;20564;-49
2023/07/30 10:35:08;;;;;;;5.63;2.30;;;24.00;99.00;;;;;;5063329;28;20530;-51
2023/07/30 10:37:34;;;;;;;2.67;1.70;;;24.50;99.90;;;;;;5069579;28;20906;-50
2023/07/30 10:40:01;;;;;;;3.40;2.00;;;24.80;99.90;;;;;;5068953;28;20461;-49
2023/07/30 10:42:34;;;;;;;7.00;2.07;;;24.60;99.90;;;;;;5072592;28;20449;-51
2023/07/30 10:45:01;;;;;;;4.40;2.33;;;24.40;99.90;;;;;;5072375;28;20437;-53
2023/07/30 10:47:29;;;;;;;4.50;2.30;;;24.20;99.90;;;;;;5067078;28;20545;-54
2023/07/30 10:50:01;;;;;;;6.83;1.80;;;24.90;99.90;;;;;;5069228;28;20516;-53
2023/07/30 10:52:28;;;;;;;6.97;2.27;;;26.00;99.90;;;;;;5071069;28;20461;-54
2023/07/30 10:55:00;;;;;;;4.10;1.63;;;26.50;99.90;;;;;;5070526;28;20472;-50
2023/07/30 10:57:31;;;;;;;2.33;1.80;;;25.80;99.90;;;;;;5067892;28;20535;-50
2023/07/30 10:59:58;;;;;;;3.50;1.70;;;25.00;99.90;;;;;;5075716;28;21020;-50
2023/07/30 11:02:24;;;;;;;6.60;2.47;;;25.90;99.90;;;;;;5062871;28;20448;-51
2023/07/30 11:04:52;;;;;;;4.00;2.17;;;26.20;99.90;;;;;;5064368;28;20481;-50
2023/07/30 11:07:19;;;;;;;4.30;2.30;;;26.90;99.90;;;;;;5068146;28;20504;-50
2023/07/30 11:09:45;;;;;;;5.03;2.10;;;26.10;99.90;;;;;;5069118;28;20481;-51
2023/07/30 11:12:12;;;;;;;4.87;2.57;;;25.30;99.90;;;;;;5069117;28;20452;-51
2023/07/30 11:14:38;;;;;;;5.70;2.33;;;25.60;99.90;;;;;;5059652;28;20489;-50
2023/07/30 11:17:05;;;;;;;5.40;2.10;;;25.70;99.90;;;;;;5067769;28;20564;-51
2023/07/30 11:19:33;;;;;;;4.97;2.00;;;25.80;99.90;;;;;;5070036;28;20542;-50
2023/07/30 11:22:02;;;;;;;3.33;2.20;;;25.50;99.90;;;;;;5069762;28;20461;-54
2023/07/30 11:24:36;;;;;;;2.93;2.03;;;25.10;99.90;;;;;;5071479;28;20452;-50
2023/07/30 11:27:03;;;;;;;2.50;1.53;;;24.60;99.90;;;;;;5072230;28;20540;-49
2023/07/30 11:29:29;;;;;;;3.00;1.70;;;24.20;99.90;;;;;;5074938;28;20539;-51
2023/07/30 11:31:58;;;;;;;2.80;2.00;;;24.30;99.90;;;;;;5070290;28;20522;-50
2023/07/30 11:34:26;;;;;;;2.47;1.70;;;24.30;99.90;;;;;;5064032;28;20464;-51
2023/07/30 11:36:54;;;;;;;4.93;2.50;;;24.60;99.90;;;;;;5069884;28;20626;-50
2023/07/30 11:39:23;;;;;;;4.53;2.67;;;24.40;99.90;;;;;;5071759;28;20572;-50
2023/07/30 11:41:49;;;;;;;6.40;2.57;;;24.00;99.90;;;;;;5070739;28;21010;-51
2023/07/30 11:44:30;;;;;;;7.80;2.57;;;23.80;99.90;;;;;;5069631;28;20560;-50
2023/07/30 11:46:57;;;;;;;6.60;2.10;;;23.80;99.90;;;;;;5064074;28;20587;-51
2023/07/30 11:49:23;;;;;;;4.87;2.03;;;24.30;99.90;;;;;;5061189;28;20544;-50
2023/07/30 11:51:51;;;;;;;6.90;2.03;;;24.90;99.90;;;;;;5063829;28;20559;-50
2023/07/30 11:54:23;;;;;;;2.40;1.90;;;25.70;99.90;;;;;;5056382;28;20477;-50
2023/07/30 11:56:55;;;;;;;4.07;2.30;;;26.50;99.90;;;;;;5065091;28;20480;-51
2023/07/30 11:59:22;;;;;;;7.03;2.37;;;26.60;99.90;;;;;;5062421;28;20580;-51
2023/07/30 12:01:49;;;;;;;9.60;2.13;;;26.50;99.90;;;;;;5066559;28;20460;-51
2023/07/30 12:04:15;;;;;;;3.13;1.80;;;25.80;99.90;;;;;;5061615;28;20569;-51
2023/07/30 12:06:45;;;;;;;8.30;2.00;;;25.70;99.90;;;;;;5069053;28;20481;-53
2023/07/30 12:09:13;;;;;;;5.57;1.73;;;25.00;99.90;;;;;;5071789;28;20524;-53
2023/07/30 12:11:47;;;;;;;76.50;25.57;;;24.90;99.90;;;;;;5064154;28;20457;-52
2023/07/30 12:14:14;;;;;;;7.37;3.73;;;24.80;99.90;;;;;;5062833;28;20587;-53
2023/07/30 12:16:40;;;;;;;7.40;2.60;;;24.90;99.90;;;;;;5068590;28;20576;-52
2023/07/30 12:19:07;;;;;;;6.83;2.77;;;24.90;99.90;;;;;;5068016;28;20567;-51
2023/07/30 12:21:33;;;;;;;4.23;2.83;;;24.60;99.90;;;;;;5070869;28;20488;-53
2023/07/30 12:24:00;;;;;;;5.23;3.33;;;24.80;99.90;;;;;;5067282;28;20555;-52
2023/07/30 12:26:26;;;;;;;5.30;2.60;;;24.90;99.90;;;;;;5065067;28;20686;-52
2023/07/30 12:28:54;;;;;;;8.27;2.67;;;24.90;99.90;;;;;;5062246;28;20571;-52
2023/07/30 12:31:20;;;;;;;5.57;3.33;;;24.70;99.90;;;;;;5069747;28;20551;-52
2023/07/30 12:33:46;;;;;;;5.57;2.07;;;24.60;99.90;;;;;;5062852;28;21024;-52
2023/07/30 12:36:13;;;;;;;4.67;2.80;;;24.20;99.90;;;;;;5065495;28;20313;-52
2023/07/30 12:38:40;;;;;;;5.10;2.47;;;24.20;99.90;;;;;;5068116;28;20575;-53
2023/07/30 12:41:06;;;;;;;4.27;2.57;;;24.30;99.90;;;;;;5063141;28;20493;-52
2023/07/30 12:43:33;;;;;;;4.30;2.43;;;24.40;99.90;;;;;;5068050;28;20901;-53
2023/07/30 12:46:01;;;;;;;4.47;2.13;;;24.30;99.90;;;;;;5061757;28;20575;-52